Terminal Aerodrome Forecast
Issued by NWS

Home | Current Version | Previous Version | Text Only | Print | Product List | Glossary On
Versions: 1 2 3 4 5 6 7 8 9 10 11 12 13 14 15 16 17 18
731
FTUS42 KJAX 212353
TAFVQQ
TAF
KVQQ 212353Z 2200/2224 15006KT P6SM VCSH SCT040 BKN060
     FM220200 VRB03KT P6SM SCT250
     FM221500 24006KT P6SM SCT025
     FM221900 21006KT P6SM SCT035 SCT080=

USA.gov is the U.S. government's official web portal to all federal, state and local government web resources and services.